sensor_id;sensor_type;location;lat;lon;timestamp;temperature;humidity
16060;DHT22;8134;49.552;7.632;2022-09-09T07:02:23;17.70;99.90
16060;DHT22;8134;49.552;7.632;2022-09-09T07:04:49;17.70;99.90
16060;DHT22;8134;49.552;7.632;2022-09-09T07:07:16;17.70;99.90
16060;DHT22;8134;49.552;7.632;2022-09-09T07:09:43;17.70;99.90
16060;DHT22;8134;49.552;7.632;2022-09-09T07:12:08;17.80;99.90
16060;DHT22;8134;49.552;7.632;2022-09-09T07:14:33;17.80;99.90
16060;DHT22;8134;49.552;7.632;2022-09-09T07:17:01;17.90;99.90
16060;DHT22;8134;49.552;7.632;2022-09-09T07:19:26;17.90;99.90
16060;DHT22;8134;49.552;7.632;2022-09-09T07:21:52;17.90;99.90
16060;DHT22;8134;49.552;7.632;2022-09-09T07:24:17;17.90;99.90
16060;DHT22;8134;49.552;7.632;2022-09-09T07:26:43;17.90;99.90
16060;DHT22;8134;49.552;7.632;2022-09-09T07:29:09;17.90;99.90
16060;DHT22;8134;49.552;7.632;2022-09-09T07:31:35;17.90;99.90
16060;DHT22;8134;49.552;7.632;2022-09-09T07:34:02;18.00;99.90
16060;DHT22;8134;49.552;7.632;2022-09-09T07:36:31;18.00;99.90
16060;DHT22;8134;49.552;7.632;2022-09-09T07:38:59;18.10;99.90
16060;DHT22;8134;49.552;7.632;2022-09-09T07:43:50;18.20;99.90
16060;DHT22;8134;49.552;7.632;2022-09-09T07:46:17;18.30;99.90
16060;DHT22;8134;49.552;7.632;2022-09-09T07:48:44;18.30;99.90
16060;DHT22;8134;49.552;7.632;2022-09-09T07:51:11;18.20;99.90
16060;DHT22;8134;49.552;7.632;2022-09-09T07:53:37;18.20;99.90
16060;DHT22;8134;49.552;7.632;2022-09-09T07:56:04;18.00;99.90
16060;DHT22;8134;49.552;7.632;2022-09-09T07:58:30;18.00;99.90
16060;DHT22;8134;49.552;7.632;2022-09-09T08:00:55;18.00;99.90
16060;DHT22;8134;49.552;7.632;2022-09-09T08:03:21;18.10;99.90
16060;DHT22;8134;49.552;7.632;2022-09-09T08:05:47;18.20;99.90
16060;DHT22;8134;49.552;7.632;2022-09-09T08:08:12;18.20;99.90
16060;DHT22;8134;49.552;7.632;2022-09-09T08:10:38;18.30;99.90
16060;DHT22;8134;49.552;7.632;2022-09-09T08:13:03;18.50;99.90
16060;DHT22;8134;49.552;7.632;2022-09-09T08:15:30;18.60;99.90
16060;DHT22;8134;49.552;7.632;2022-09-09T08:17:56;18.60;99.90
16060;DHT22;8134;49.552;7.632;2022-09-09T08:20:21;18.60;99.90
16060;DHT22;8134;49.552;7.632;2022-09-09T08:22:48;18.50;99.90
16060;DHT22;8134;49.552;7.632;2022-09-09T08:25:15;18.40;99.90
16060;DHT22;8134;49.552;7.632;2022-09-09T08:27:40;18.40;99.90
16060;DHT22;8134;49.552;7.632;2022-09-09T08:30:06;18.40;99.90
16060;DHT22;8134;49.552;7.632;2022-09-09T08:32:32;18.60;99.90
16060;DHT22;8134;49.552;7.632;2022-09-09T08:34:57;18.60;99.90
16060;DHT22;8134;49.552;7.632;2022-09-09T08:37:23;18.60;99.90
16060;DHT22;8134;49.552;7.632;2022-09-09T08:39:48;18.50;99.90
16060;DHT22;8134;49.552;7.632;2022-09-09T08:50:12;19.10;99.90
16060;DHT22;8134;49.552;7.632;2022-09-09T08:55:22;19.10;99.90
16060;DHT22;8134;49.552;7.632;2022-09-09T08:57:50;19.10;99.90
16060;DHT22;8134;49.552;7.632;2022-09-09T09:00:16;19.20;99.90
16060;DHT22;8134;49.552;7.632;2022-09-09T09:05:11;19.30;99.90
16060;DHT22;8134;49.552;7.632;2022-09-09T09:07:42;19.30;99.90
16060;DHT22;8134;49.552;7.632;2022-09-09T09:12:55;19.20;99.90
16060;DHT22;8134;49.552;7.632;2022-09-09T09:15:25;19.10;99.90
16060;DHT22;8134;49.552;7.632;2022-09-09T09:17:50;19.00;99.90
16060;DHT22;8134;49.552;7.632;2022-09-09T09:20:17;19.00;99.90
16060;DHT22;8134;49.552;7.632;2022-09-09T09:22:50;18.90;99.90
16060;DHT22;8134;49.552;7.632;2022-09-09T09:28:08;18.80;99.90
16060;DHT22;8134;49.552;7.632;2022-09-09T09:30:39;18.80;99.90
16060;DHT22;8134;49.552;7.632;2022-09-09T09:33:10;18.80;99.90
16060;DHT22;8134;49.552;7.632;2022-09-09T09:35:37;19.00;99.90
16060;DHT22;8134;49.552;7.632;2022-09-09T09:38:11;19.10;99.90
16060;DHT22;8134;49.552;7.632;2022-09-09T09:40:48;19.10;99.90
16060;DHT22;8134;49.552;7.632;2022-09-09T09:43:18;19.20;99.90
16060;DHT22;8134;49.552;7.632;2022-09-09T09:45:45;19.10;99.90
16060;DHT22;8134;49.552;7.632;2022-09-09T09:48:11;19.10;99.90
16060;DHT22;8134;49.552;7.632;2022-09-09T09:56:25;19.40;99.90
16060;DHT22;8134;49.552;7.632;2022-09-09T10:01:26;19.30;99.90
16060;DHT22;8134;49.552;7.632;2022-09-09T10:03:59;19.30;99.90
16060;DHT22;8134;49.552;7.632;2022-09-09T10:06:35;19.50;99.90
16060;DHT22;8134;49.552;7.632;2022-09-09T10:09:01;19.70;99.90
16060;DHT22;8134;49.552;7.632;2022-09-09T10:11:30;19.80;99.90
16060;DHT22;8134;49.552;7.632;2022-09-09T10:14:02;19.80;99.90
16060;DHT22;8134;49.552;7.632;2022-09-09T10:16:33;19.70;99.90
16060;DHT22;8134;49.552;7.632;2022-09-09T10:19:19;19.60;99.90
16060;DHT22;8134;49.552;7.632;2022-09-09T10:22:32;19.50;99.90
16060;DHT22;8134;49.552;7.632;2022-09-09T10:34:55;19.50;99.90
16060;DHT22;8134;49.552;7.632;2022-09-09T10:39:48;19.90;99.90
16060;DHT22;8134;49.552;7.632;2022-09-09T10:42:16;20.00;99.90
16060;DHT22;8134;49.552;7.632;2022-09-09T10:50:18;19.80;99.90
16060;DHT22;8134;49.552;7.632;2022-09-09T10:55:16;19.90;99.90
16060;DHT22;8134;49.552;7.632;2022-09-09T10:57:48;20.00;99.90
16060;DHT22;8134;49.552;7.632;2022-09-09T11:00:17;20.20;99.90
16060;DHT22;8134;49.552;7.632;2022-09-09T11:02:43;20.30;99.90
16060;DHT22;8134;49.552;7.632;2022-09-09T11:05:19;20.40;99.90
16060;DHT22;8134;49.552;7.632;2022-09-09T11:07:49;20.50;99.90
16060;DHT22;8134;49.552;7.632;2022-09-09T11:10:22;20.60;99.90
16060;DHT22;8134;49.552;7.632;2022-09-09T11:12:49;20.70;99.90
16060;DHT22;8134;49.552;7.632;2022-09-09T11:15:20;20.70;99.90
16060;DHT22;8134;49.552;7.632;2022-09-09T11:17:52;20.90;99.90
16060;DHT22;8134;49.552;7.632;2022-09-09T11:20:19;21.00;99.90
16060;DHT22;8134;49.552;7.632;2022-09-09T11:25:24;20.60;99.90
16060;DHT22;8134;49.552;7.632;2022-09-09T11:30:20;18.40;99.90
16060;DHT22;8134;49.552;7.632;2022-09-09T11:35:32;16.20;99.90
16060;DHT22;8134;49.552;7.632;2022-09-09T11:40:28;15.90;99.90
16060;DHT22;8134;49.552;7.632;2022-09-09T11:43:03;15.80;99.90
16060;DHT22;8134;49.552;7.632;2022-09-09T11:45:30;15.70;99.90
16060;DHT22;8134;49.552;7.632;2022-09-09T11:47:56;15.70;99.90
16060;DHT22;8134;49.552;7.632;2022-09-09T11:52:48;15.70;99.90
16060;DHT22;8134;49.552;7.632;2022-09-09T11:55:28;15.70;99.90
16060;DHT22;8134;49.552;7.632;2022-09-09T12:00:29;15.90;99.90
16060;DHT22;8134;49.552;7.632;2022-09-09T12:02:56;15.90;99.90
16060;DHT22;8134;49.552;7.632;2022-09-09T12:05:22;16.10;99.90
16060;DHT22;8134;49.552;7.632;2022-09-09T12:07:57;16.10;99.90
16060;DHT22;8134;49.552;7.632;2022-09-09T12:10:28;16.20;99.90
16060;DHT22;8134;49.552;7.632;2022-09-09T12:12:54;16.10;99.90
16060;DHT22;8134;49.552;7.632;2022-09-09T12:15:27;16.10;99.90
16060;DHT22;8134;49.552;7.632;2022-09-09T12:17:55;16.40;99.90
16060;DHT22;8134;49.552;7.632;2022-09-09T12:20:31;16.60;99.90
16060;DHT22;8134;49.552;7.632;2022-09-09T12:26:00;17.00;99.90
16060;DHT22;8134;49.552;7.632;2022-09-09T12:31:24;17.40;99.90
16060;DHT22;8134;49.552;7.632;2022-09-09T12:33:50;17.40;99.90
16060;DHT22;8134;49.552;7.632;2022-09-09T12:36:51;17.50;99.90
16060;DHT22;8134;49.552;7.632;2022-09-09T12:39:21;17.80;99.90
16060;DHT22;8134;49.552;7.632;2022-09-09T12:41:54;18.10;99.90
16060;DHT22;8134;49.552;7.632;2022-09-09T12:44:22;18.10;99.90
16060;DHT22;8134;49.552;7.632;2022-09-09T12:46:47;18.20;99.90
16060;DHT22;8134;49.552;7.632;2022-09-09T12:49:46;18.20;99.90
16060;DHT22;8134;49.552;7.632;2022-09-09T12:52:07;18.10;99.90
16060;DHT22;8134;49.552;7.632;2022-09-09T12:54:35;18.20;99.90
16060;DHT22;8134;49.552;7.632;2022-09-09T12:57:01;18.10;99.90
16060;DHT22;8134;49.552;7.632;2022-09-09T12:59:35;18.00;99.90
16060;DHT22;8134;49.552;7.632;2022-09-09T13:02:01;18.20;99.90
16060;DHT22;8134;49.552;7.632;2022-09-09T13:04:27;18.60;99.90
16060;DHT22;8134;49.552;7.632;2022-09-09T13:06:52;18.80;99.90
16060;DHT22;8134;49.552;7.632;2022-09-09T13:09:18;18.80;99.90
16060;DHT22;8134;49.552;7.632;2022-09-09T13:11:45;19.00;99.90
16060;DHT22;8134;49.552;7.632;2022-09-09T13:14:35;19.20;99.90
16060;DHT22;8134;49.552;7.632;2022-09-09T13:17:05;19.20;99.90
16060;DHT22;8134;49.552;7.632;2022-09-09T13:19:36;19.40;99.90
16060;DHT22;8134;49.552;7.632;2022-09-09T13:22:14;19.40;99.90
16060;DHT22;8134;49.552;7.632;2022-09-09T13:24:44;19.60;99.90
16060;DHT22;8134;49.552;7.632;2022-09-09T13:29:53;19.90;99.90
16060;DHT22;8134;49.552;7.632;2022-09-09T13:32:22;19.90;99.90
16060;DHT22;8134;49.552;7.632;2022-09-09T13:34:51;19.90;99.90
16060;DHT22;8134;49.552;7.632;2022-09-09T13:37:30;19.90;99.90
16060;DHT22;8134;49.552;7.632;2022-09-09T13:39:56;19.90;99.90
16060;DHT22;8134;49.552;7.632;2022-09-09T13:42:26;19.80;99.90
16060;DHT22;8134;49.552;7.632;2022-09-09T13:44:53;19.70;99.90
16060;DHT22;8134;49.552;7.632;2022-09-09T13:47:20;19.50;99.90
16060;DHT22;8134;49.552;7.632;2022-09-09T13:49:48;19.40;99.90
16060;DHT22;8134;49.552;7.632;2022-09-09T13:52:14;19.30;99.90
16060;DHT22;8134;49.552;7.632;2022-09-09T13:54:42;19.30;99.90
16060;DHT22;8134;49.552;7.632;2022-09-09T13:57:15;19.10;99.90
16060;DHT22;8134;49.552;7.632;2022-09-09T13:59:41;19.10;99.90
16060;DHT22;8134;49.552;7.632;2022-09-09T14:02:07;19.00;99.90
16060;DHT22;8134;49.552;7.632;2022-09-09T14:04:32;18.80;99.90
16060;DHT22;8134;49.552;7.632;2022-09-09T14:07:00;18.60;99.90
16060;DHT22;8134;49.552;7.632;2022-09-09T14:09:26;18.30;99.90
16060;DHT22;8134;49.552;7.632;2022-09-09T14:11:51;17.90;99.90
16060;DHT22;8134;49.552;7.632;2022-09-09T14:14:17;17.80;99.90
16060;DHT22;8134;49.552;7.632;2022-09-09T14:16:42;17.70;99.90
16060;DHT22;8134;49.552;7.632;2022-09-09T14:19:08;17.80;99.90
16060;DHT22;8134;49.552;7.632;2022-09-09T14:21:34;18.00;99.90
16060;DHT22;8134;49.552;7.632;2022-09-09T14:24:00;18.30;99.90
16060;DHT22;8134;49.552;7.632;2022-09-09T14:26:25;18.70;99.90
16060;DHT22;8134;49.552;7.632;2022-09-09T14:28:51;19.10;99.90
16060;DHT22;8134;49.552;7.632;2022-09-09T14:31:17;19.60;99.90
16060;DHT22;8134;49.552;7.632;2022-09-09T14:33:43;19.90;99.90
16060;DHT22;8134;49.552;7.632;2022-09-09T14:36:08;20.10;99.90
16060;DHT22;8134;49.552;7.632;2022-09-09T14:38:35;20.30;99.90
16060;DHT22;8134;49.552;7.632;2022-09-09T14:41:11;20.30;99.90
16060;DHT22;8134;49.552;7.632;2022-09-09T14:43:37;20.20;99.90
16060;DHT22;8134;49.552;7.632;2022-09-09T14:46:07;20.20;99.90
16060;DHT22;8134;49.552;7.632;2022-09-09T14:48:32;20.10;99.90
16060;DHT22;8134;49.552;7.632;2022-09-09T14:51:08;20.10;99.90
16060;DHT22;8134;49.552;7.632;2022-09-09T14:53:34;20.00;99.90
16060;DHT22;8134;49.552;7.632;2022-09-09T14:56:03;19.90;99.90
16060;DHT22;8134;49.552;7.632;2022-09-09T14:58:32;19.80;99.90
16060;DHT22;8134;49.552;7.632;2022-09-09T15:01:02;19.80;99.90
16060;DHT22;8134;49.552;7.632;2022-09-09T15:03:27;19.80;99.90
16060;DHT22;8134;49.552;7.632;2022-09-09T15:05:52;19.90;99.90
16060;DHT22;8134;49.552;7.632;2022-09-09T15:08:18;20.00;99.90
16060;DHT22;8134;49.552;7.632;2022-09-09T15:10:43;20.00;99.90
16060;DHT22;8134;49.552;7.632;2022-09-09T15:13:10;20.10;99.90
16060;DHT22;8134;49.552;7.632;2022-09-09T15:15:35;20.30;99.90
16060;DHT22;8134;49.552;7.632;2022-09-09T15:18:01;20.50;99.90
16060;DHT22;8134;49.552;7.632;2022-09-09T15:20:26;20.50;99.90
16060;DHT22;8134;49.552;7.632;2022-09-09T15:22:51;20.30;99.90
16060;DHT22;8134;49.552;7.632;2022-09-09T15:25:18;20.20;99.90
16060;DHT22;8134;49.552;7.632;2022-09-09T15:27:43;20.10;99.90
16060;DHT22;8134;49.552;7.632;2022-09-09T15:30:09;20.00;99.90
16060;DHT22;8134;49.552;7.632;2022-09-09T15:32:35;19.80;99.90
16060;DHT22;8134;49.552;7.632;2022-09-09T15:35:00;19.70;99.90
16060;DHT22;8134;49.552;7.632;2022-09-09T15:37:26;19.60;99.90
16060;DHT22;8134;49.552;7.632;2022-09-09T15:39:52;19.50;99.90
16060;DHT22;8134;49.552;7.632;2022-09-09T15:42:17;19.40;99.90
16060;DHT22;8134;49.552;7.632;2022-09-09T15:44:43;19.30;99.90
16060;DHT22;8134;49.552;7.632;2022-09-09T15:47:12;19.20;99.90
16060;DHT22;8134;49.552;7.632;2022-09-09T15:49:40;19.20;99.90
16060;DHT22;8134;49.552;7.632;2022-09-09T15:52:06;19.10;99.90
16060;DHT22;8134;49.552;7.632;2022-09-09T15:54:32;19.10;99.90
16060;DHT22;8134;49.552;7.632;2022-09-09T15:56:59;19.10;99.90
16060;DHT22;8134;49.552;7.632;2022-09-09T15:59:26;18.70;99.90
16060;DHT22;8134;49.552;7.632;2022-09-09T16:01:53;18.10;99.90
16060;DHT22;8134;49.552;7.632;2022-09-09T16:04:19;17.40;99.90
16060;DHT22;8134;49.552;7.632;2022-09-09T16:06:49;16.70;99.90
16060;DHT22;8134;49.552;7.632;2022-09-09T16:09:15;16.40;99.90
16060;DHT22;8134;49.552;7.632;2022-09-09T16:11:40;16.10;99.90
16060;DHT22;8134;49.552;7.632;2022-09-09T16:14:06;16.00;99.90
16060;DHT22;8134;49.552;7.632;2022-09-09T16:16:32;15.80;99.90
16060;DHT22;8134;49.552;7.632;2022-09-09T16:18:58;15.80;99.90
16060;DHT22;8134;49.552;7.632;2022-09-09T16:23:50;15.90;99.90
16060;DHT22;8134;49.552;7.632;2022-09-09T16:26:16;15.80;99.90
16060;DHT22;8134;49.552;7.632;2022-09-09T16:28:42;15.80;99.90
16060;DHT22;8134;49.552;7.632;2022-09-09T16:31:08;15.70;99.90
16060;DHT22;8134;49.552;7.632;2022-09-09T16:33:35;15.70;99.90
16060;DHT22;8134;49.552;7.632;2022-09-09T16:36:05;15.70;99.90
16060;DHT22;8134;49.552;7.632;2022-09-09T16:38:30;15.60;99.90
16060;DHT22;8134;49.552;7.632;2022-09-09T16:40:59;15.60;99.90
16060;DHT22;8134;49.552;7.632;2022-09-09T16:43:25;15.40;99.90
16060;DHT22;8134;49.552;7.632;2022-09-09T16:45:51;15.30;99.90
16060;DHT22;8134;49.552;7.632;2022-09-09T16:48:16;15.20;99.90
16060;DHT22;8134;49.552;7.632;2022-09-09T16:50:42;15.30;99.90
16060;DHT22;8134;49.552;7.632;2022-09-09T16:53:07;15.30;99.90
16060;DHT22;8134;49.552;7.632;2022-09-09T16:55:38;15.40;99.90
16060;DHT22;8134;49.552;7.632;2022-09-09T16:58:04;15.50;99.90
16060;DHT22;8134;49.552;7.632;2022-09-09T17:00:29;15.40;99.90
16060;DHT22;8134;49.552;7.632;2022-09-09T17:02:54;15.30;99.90
16060;DHT22;8134;49.552;7.632;2022-09-09T17:05:20;15.30;99.90
16060;DHT22;8134;49.552;7.632;2022-09-09T17:07:45;15.30;99.90
16060;DHT22;8134;49.552;7.632;2022-09-09T17:10:11;15.40;99.90
16060;DHT22;8134;49.552;7.632;2022-09-09T17:12:36;15.60;99.90
16060;DHT22;8134;49.552;7.632;2022-09-09T17:15:02;15.60;99.90
16060;DHT22;8134;49.552;7.632;2022-09-09T17:17:28;15.70;99.90
16060;DHT22;8134;49.552;7.632;2022-09-09T17:19:54;15.60;99.90
16060;DHT22;8134;49.552;7.632;2022-09-09T17:22:19;15.60;99.90
16060;DHT22;8134;49.552;7.632;2022-09-09T17:24:46;15.60;99.90
16060;DHT22;8134;49.552;7.632;2022-09-09T17:27:11;15.50;99.90
16060;DHT22;8134;49.552;7.632;2022-09-09T17:29:38;15.40;99.90
16060;DHT22;8134;49.552;7.632;2022-09-09T17:32:04;15.30;99.90
16060;DHT22;8134;49.552;7.632;2022-09-09T17:34:30;15.20;99.90
16060;DHT22;8134;49.552;7.632;2022-09-09T17:36:56;15.20;99.90
16060;DHT22;8134;49.552;7.632;2022-09-09T17:39:21;15.20;99.90
16060;DHT22;8134;49.552;7.632;2022-09-09T17:41:47;15.20;99.90
16060;DHT22;8134;49.552;7.632;2022-09-09T17:44:12;15.20;99.90
16060;DHT22;8134;49.552;7.632;2022-09-09T17:46:38;15.30;99.90
16060;DHT22;8134;49.552;7.632;2022-09-09T17:49:06;15.30;99.90
16060;DHT22;8134;49.552;7.632;2022-09-09T17:51:32;15.30;99.90
16060;DHT22;8134;49.552;7.632;2022-09-09T17:53:59;15.40;99.90
16060;DHT22;8134;49.552;7.632;2022-09-09T17:56:26;15.60;99.90
16060;DHT22;8134;49.552;7.632;2022-09-09T17:58:53;15.50;99.90
16060;DHT22;8134;49.552;7.632;2022-09-09T18:01:20;15.50;99.90
16060;DHT22;8134;49.552;7.632;2022-09-09T18:03:46;15.40;99.90
16060;DHT22;8134;49.552;7.632;2022-09-09T18:06:13;15.40;99.90
16060;DHT22;8134;49.552;7.632;2022-09-09T18:08:41;15.50;99.90
16060;DHT22;8134;49.552;7.632;2022-09-09T18:11:06;15.60;99.90
16060;DHT22;8134;49.552;7.632;2022-09-09T18:13:32;15.70;99.90
16060;DHT22;8134;49.552;7.632;2022-09-09T18:15:58;15.70;99.90
16060;DHT22;8134;49.552;7.632;2022-09-09T18:18:24;15.80;99.90
16060;DHT22;8134;49.552;7.632;2022-09-09T18:21:03;15.80;99.90
16060;DHT22;8134;49.552;7.632;2022-09-09T18:23:33;15.70;99.90
16060;DHT22;8134;49.552;7.632;2022-09-09T18:25:59;15.20;99.90
16060;DHT22;8134;49.552;7.632;2022-09-09T18:28:25;15.10;99.90
16060;DHT22;8134;49.552;7.632;2022-09-09T18:30:51;15.10;99.90
16060;DHT22;8134;49.552;7.632;2022-09-09T18:33:17;15.00;99.90
16060;DHT22;8134;49.552;7.632;2022-09-09T18:35:42;15.10;99.90
16060;DHT22;8134;49.552;7.632;2022-09-09T18:38:08;15.10;99.90
16060;DHT22;8134;49.552;7.632;2022-09-09T18:40:33;15.10;99.90
16060;DHT22;8134;49.552;7.632;2022-09-09T18:42:59;15.10;99.90
16060;DHT22;8134;49.552;7.632;2022-09-09T18:45:24;15.20;99.90
16060;DHT22;8134;49.552;7.632;2022-09-09T18:47:50;15.20;99.90
16060;DHT22;8134;49.552;7.632;2022-09-09T18:50:15;15.30;99.90
16060;DHT22;8134;49.552;7.632;2022-09-09T18:52:41;15.40;99.90
16060;DHT22;8134;49.552;7.632;2022-09-09T18:55:07;15.40;99.90
16060;DHT22;8134;49.552;7.632;2022-09-09T18:57:32;15.20;99.90
16060;DHT22;8134;49.552;7.632;2022-09-09T18:59:58;15.20;99.90
16060;DHT22;8134;49.552;7.632;2022-09-09T19:02:24;15.20;99.90
16060;DHT22;8134;49.552;7.632;2022-09-09T19:04:50;15.30;99.90
16060;DHT22;8134;49.552;7.632;2022-09-09T19:07:15;15.30;99.90
16060;DHT22;8134;49.552;7.632;2022-09-09T19:09:43;15.40;99.90
16060;DHT22;8134;49.552;7.632;2022-09-09T19:12:08;15.30;99.90
16060;DHT22;8134;49.552;7.632;2022-09-09T19:14:34;15.40;99.90
16060;DHT22;8134;49.552;7.632;2022-09-09T19:16:59;15.50;99.90
16060;DHT22;8134;49.552;7.632;2022-09-09T19:19:26;15.60;99.90
16060;DHT22;8134;49.552;7.632;2022-09-09T19:21:52;15.60;99.90
16060;DHT22;8134;49.552;7.632;2022-09-09T19:24:20;15.70;99.90
16060;DHT22;8134;49.552;7.632;2022-09-09T19:26:47;15.60;99.90
16060;DHT22;8134;49.552;7.632;2022-09-09T19:29:17;15.70;99.90
16060;DHT22;8134;49.552;7.632;2022-09-09T19:31:43;15.60;99.90
16060;DHT22;8134;49.552;7.632;2022-09-09T19:34:10;15.50;99.90
16060;DHT22;8134;49.552;7.632;2022-09-09T19:36:35;15.50;99.90
16060;DHT22;8134;49.552;7.632;2022-09-09T19:39:01;15.50;99.90
16060;DHT22;8134;49.552;7.632;2022-09-09T19:41:28;15.50;99.90
16060;DHT22;8134;49.552;7.632;2022-09-09T19:43:57;15.50;99.90
16060;DHT22;8134;49.552;7.632;2022-09-09T19:46:29;15.40;99.90
16060;DHT22;8134;49.552;7.632;2022-09-09T19:48:55;15.40;99.90
16060;DHT22;8134;49.552;7.632;2022-09-09T19:51:21;15.50;99.90
16060;DHT22;8134;49.552;7.632;2022-09-09T19:53:48;15.50;99.90
16060;DHT22;8134;49.552;7.632;2022-09-09T19:56:14;15.60;99.90
16060;DHT22;8134;49.552;7.632;2022-09-09T19:58:40;15.60;99.90
16060;DHT22;8134;49.552;7.632;2022-09-09T20:01:10;15.60;99.90
16060;DHT22;8134;49.552;7.632;2022-09-09T20:03:37;15.50;99.90
16060;DHT22;8134;49.552;7.632;2022-09-09T20:06:03;15.60;99.90
16060;DHT22;8134;49.552;7.632;2022-09-09T20:08:30;15.50;99.90
16060;DHT22;8134;49.552;7.632;2022-09-09T20:10:55;15.60;99.90
16060;DHT22;8134;49.552;7.632;2022-09-09T20:13:21;15.60;99.90
16060;DHT22;8134;49.552;7.632;2022-09-09T20:16:00;15.50;99.90
16060;DHT22;8134;49.552;7.632;2022-09-09T20:18:28;15.50;99.90
16060;DHT22;8134;49.552;7.632;2022-09-09T20:21:12;15.50;99.90
16060;DHT22;8134;49.552;7.632;2022-09-09T20:23:39;15.40;99.90
16060;DHT22;8134;49.552;7.632;2022-09-09T20:26:06;15.30;99.90
16060;DHT22;8134;49.552;7.632;2022-09-09T20:28:32;15.20;99.90
16060;DHT22;8134;49.552;7.632;2022-09-09T20:31:06;15.00;99.90
16060;DHT22;8134;49.552;7.632;2022-09-09T20:33:33;14.90;99.90
16060;DHT22;8134;49.552;7.632;2022-09-09T20:35:58;14.90;99.90
16060;DHT22;8134;49.552;7.632;2022-09-09T20:38:30;14.90;99.90
16060;DHT22;8134;49.552;7.632;2022-09-09T20:41:01;15.00;99.90
16060;DHT22;8134;49.552;7.632;2022-09-09T20:43:27;15.00;99.90
16060;DHT22;8134;49.552;7.632;2022-09-09T20:45:52;15.00;99.90
16060;DHT22;8134;49.552;7.632;2022-09-09T20:48:21;14.90;99.90
16060;DHT22;8134;49.552;7.632;2022-09-09T20:50:47;14.80;99.90
16060;DHT22;8134;49.552;7.632;2022-09-09T20:53:13;14.70;99.90
16060;DHT22;8134;49.552;7.632;2022-09-09T20:55:39;14.70;99.90
16060;DHT22;8134;49.552;7.632;2022-09-09T20:58:05;14.70;99.90
16060;DHT22;8134;49.552;7.632;2022-09-09T21:00:31;14.70;99.90
16060;DHT22;8134;49.552;7.632;2022-09-09T21:02:57;14.70;99.90
16060;DHT22;8134;49.552;7.632;2022-09-09T21:05:22;14.70;99.90
16060;DHT22;8134;49.552;7.632;2022-09-09T21:07:50;14.60;99.90
16060;DHT22;8134;49.552;7.632;2022-09-09T21:10:15;14.80;99.90
16060;DHT22;8134;49.552;7.632;2022-09-09T21:12:42;14.90;99.90
16060;DHT22;8134;49.552;7.632;2022-09-09T21:15:08;14.90;99.90
16060;DHT22;8134;49.552;7.632;2022-09-09T21:17:33;14.90;99.90
16060;DHT22;8134;49.552;7.632;2022-09-09T21:19:59;15.00;99.90
16060;DHT22;8134;49.552;7.632;2022-09-09T21:22:26;15.00;99.90
16060;DHT22;8134;49.552;7.632;2022-09-09T21:24:51;14.90;99.90
16060;DHT22;8134;49.552;7.632;2022-09-09T21:27:17;14.90;99.90
16060;DHT22;8134;49.552;7.632;2022-09-09T21:29:43;14.80;99.90
16060;DHT22;8134;49.552;7.632;2022-09-09T21:32:08;14.80;99.90
16060;DHT22;8134;49.552;7.632;2022-09-09T21:34:34;14.80;99.90
16060;DHT22;8134;49.552;7.632;2022-09-09T21:36:59;14.80;99.90
16060;DHT22;8134;49.552;7.632;2022-09-09T21:39:26;14.70;99.90
16060;DHT22;8134;49.552;7.632;2022-09-09T21:41:52;14.60;99.90
16060;DHT22;8134;49.552;7.632;2022-09-09T21:44:17;14.50;99.90
16060;DHT22;8134;49.552;7.632;2022-09-09T21:46:43;14.40;99.90
16060;DHT22;8134;49.552;7.632;2022-09-09T21:49:09;14.50;99.90
16060;DHT22;8134;49.552;7.632;2022-09-09T21:51:35;14.50;99.90
16060;DHT22;8134;49.552;7.632;2022-09-09T21:54:00;14.40;99.90
16060;DHT22;8134;49.552;7.632;2022-09-09T21:56:26;14.40;99.90
16060;DHT22;8134;49.552;7.632;2022-09-09T21:58:55;14.40;99.90
16060;DHT22;8134;49.552;7.632;2022-09-09T22:01:21;14.40;99.90
16060;DHT22;8134;49.552;7.632;2022-09-09T22:03:49;14.40;99.90
16060;DHT22;8134;49.552;7.632;2022-09-09T22:06:15;14.50;99.90
16060;DHT22;8134;49.552;7.632;2022-09-09T22:08:41;14.50;99.90
16060;DHT22;8134;49.552;7.632;2022-09-09T22:11:08;14.40;99.90
16060;DHT22;8134;49.552;7.632;2022-09-09T22:13:34;14.40;99.90
16060;DHT22;8134;49.552;7.632;2022-09-09T22:16:01;14.40;99.90
16060;DHT22;8134;49.552;7.632;2022-09-09T22:18:27;14.40;99.90
